North Battleford Airport
CYQW : now visible

Airfield :











YOU CAN JOIN US ON...

 
LOGIN :

Register | Disclaimer

   EN    FR    IT 

 









Legend :    VFR   Marginal VFR   IFR   Intensive IFR   Very Intensive IFR
Visi :
Ceiling :
>= 8 km
>= 3000ft
5 to 8 km
1000 to 3000 ft
1500m to 5 km
500 to 1000 ft
800 to 1500m
200 to 500 ft
< 800m
< 200 ft
Symbols :   Thunderstorms  Fog  Heavy snow  Heavy precipitations  Wind > 20 kt






- Airport Elevation : 1799 ft
- IATA code : YQW


CYQW - North Battleford

CURRENT METAR :
  • 231400Z AUTO 22008KT 9SM CLR 06/M04 A3000 RMK SLP176

EXPIRED METARs :
  • 231300Z AUTO VRB04KT 9SM CLR M00/M05 A2999 RMK SLP176
  • 231200Z AUTO 23007KT 9SM CLR M01/M07 A2998 RMK SLP172
  • 231100Z AUTO VRB05KT 9SM CLR M03/M08 A2997 RMK SLP168
  • 231000Z AUTO VRB06KT 9SM CLR M02/M09 A2995 RMK SLP162

TAF TAF CYQW
Valid from the 23 at 12:00 until the 24 at 00:00 UTC


231140Z 2312/2324 VRB03KT P6SM SKC
FM232000 12008KT P6SM SCT100 RMK FCST BASED ON AUTO OBS. NXT FCST BY 231800Z
CZWG FIR / North America



MET'MAP, your aeronautical weather chart ! - Copyright ORBIFLY December 2007 - Disclaimer

ORBIFLY MET'MAP TEAM :

Programming & Development : Alexandra Zaïnal
Original concept : Baudouin d'Aumeries
Technical & hardware support : Manuel Goepfert
Assistance : Marc-Olivier Méhu




SOURCES & CREDITS :

   NOAA       Earth
Advisory